Skip to Main Content

Video Notice: If you see just a black screen when trying to view Live Traffic cameras, please click inside the window to get video to play. An update to certain browsers is not allowing the video to auto-play when the window opens. 

SEARCH:
Location Air RH Dwp Precip Type Wind Speed Wind Gust Direction Pavement Temperature Date/Time
Hatem Bridge US 40 E/B 77 82 71 None 11 mph 12 mph S 91 - 91 9/26/2018 11:38:00 AM
I-270 at I-370 79 80 72 None Calm Calm N 91 - 91 9/26/2018 11:35:00 AM
I-270 at MD-109 80 84 75 None Calm 5 mph E 90 - 91 9/26/2018 11:35:00 AM
I-495 at American Legion Bridge 82 71 72 None 4 mph 7 mph SW 99 - 99 9/26/2018 11:35:00 AM
I-68 at Savage Mt 69 97 68 None Calm 7 mph S 72 - 72 9/26/2018 11:35:00 AM
I-68 at Sideling Hill 68 100 68 None Calm 5 mph S 74 - 74 9/26/2018 11:35:00 AM
I-68 at US 219 65 100 65 None 11 mph 20 mph SW 67 - 67 9/26/2018 11:35:00 AM
I-68 at WV Line 67 97 67 None 5 mph 11 mph SW 70 - 71 9/26/2018 11:35:00 AM
I-695 at I-83 81 75 72 None Calm 9 mph SW 93 - 94 9/26/2018 11:35:00 AM
I-695 on FSK Bridge 78 79 71 None 7 mph 11 mph N 85 - 85 9/26/2018 11:38:00 AM
I-70 at Fred-Wash Co. 71 100 71 None Calm 5 mph SW 82 - 84 9/26/2018 11:35:00 AM
I-70 at I-695 80 76 72 None 5 mph 11 mph SW 90 - 98 9/26/2018 11:35:00 AM
I-70 at I-81 75 93 73 None 6 mph 12 mph S 84 - 84 9/26/2018 11:35:00 AM
I-70 at MD-27 78 90 75 None 4 mph 10 mph SW 90 - 91 9/26/2018 11:35:00 AM
I-70 at MD-32 78 80 71 None Calm 9 mph W 92 - 94 9/26/2018 11:35:00 AM
I-83 at MD-137 79 98 79 None Calm 10 mph E 92 - 92 9/26/2018 11:35:00 AM
I-95 at I-695 NE 78 80 71 None 4 mph 7 mph SW 90 - 94 9/26/2018 11:38:00 AM
I-95 at Patuxent River 81 78 74 None 6 mph 14 mph SW 94 - 95 9/26/2018 11:35:00 AM
I-95 at Tydings Bridge 80 77 72 None Calm 12 mph S 92 - 95 9/26/2018 11:35:00 AM
I-95/495 at I-295 83 74 74 None Calm 7 mph SW 81 - 96 9/26/2018 11:35:00 AM
I-97 at MD-100 82 70 71 None 9 mph 16 mph SW 96 - 98 9/26/2018 11:35:00 AM
I-97 at MD-32 80 75 71 None 5 mph 10 mph SW 94 - 98 9/26/2018 11:35:00 AM
IS 70 W of I-270 - - - No Data Available - - No Data Available 85 - 85 9/26/2018 11:35:00 AM
MD 136 @ MD 646 77 88 73 No Data Available Calm 4 mph SW 95 - 95 9/26/2018 11:35:00 AM
MD 20 at MD 21 78 78 71 None 9 mph 17 mph SW 103 - 103 9/26/2018 11:35:00 AM
MD 23 at Meadowtree Road 78 83 73 No Data Available 5 mph 11 mph SE 95 - 95 9/26/2018 11:35:00 AM
MD 231 at Patuxent River 82 73 72 None 8 mph 12 mph SW 100 - 99 9/26/2018 11:35:00 AM
MD 24 at Jarrettsville Road 78 82 72 No Data Available Calm 10 mph SE 95 - 95 9/26/2018 11:35:00 AM
MD 260 at Cox Rd 81 73 72 None Calm 10 mph W 104 - 104 9/26/2018 11:35:00 AM
MD-135 at Salt Dome 67 100 67 None 7 mph 15 mph SW 74 - 74 9/26/2018 11:35:00 AM
MD-140 at MD-97 76 87 72 None 7 mph 18 mph SW 88 - 90 9/26/2018 11:35:00 AM
MD-200 EB at Bonifant Rd - - - No Data Available - - No Data Available -
MD-200 WB at Muncaster Mill Rd 80 74 71 None 5 mph 10 mph SW 100 - 98 9/26/2018 11:38:00 AM
MD-213 at Sassafras River 82 82 76 None 9 mph 13 mph SW 90 - 90 9/26/2018 11:35:00 AM
MD-24 at Rock St Park 74 100 74 None Calm Calm N 79 - 79 9/26/2018 11:35:00 AM
MD-30 at PA Line 75 93 73 None 5 mph 12 mph SE 87 - 87 9/26/2018 11:35:00 AM
MD-33 at Knapps Narrows Drawbridge 79 80 73 None 4 mph 13 mph SE 105 - 105 9/26/2018 11:35:00 AM
MD-344 at MD-224 78 83 73 None Calm Calm S 96 - 96 9/26/2018 11:35:00 AM
MD-4 at Patuxent River 82 79 75 None 8 mph 16 mph SW 96 - 98 9/26/2018 11:38:00 AM
MD-404 at Choptank River 84 70 73 None 5 mph 10 mph S 104 - 105 9/26/2018 11:35:00 AM
MD-43 at MD-150 78 89 75 None 5 mph 11 mph SE 101 - 98 9/26/2018 11:35:00 AM
MD-51 at Oldtown Salt Dome 69 100 69 Rain Calm 4 mph NW 72 - 72 9/26/2018 11:35:00 AM
MD-64 at MD-418 75 81 69 None 10 mph 16 mph SW 91 - 93 9/26/2018 11:35:00 AM
US 301 at MD 305 82 69 71 None 7 mph 12 mph SW 102 - 103 9/26/2018 11:35:00 AM
US-1 at Baltimore / Harford Co. Line 77 83 72 None Calm 7 mph SE 86 - 88 9/26/2018 11:35:00 AM
US-1 at Conowingo Dam 80 89 77 None 5 mph 10 mph SW 99 - 99 9/26/2018 11:35:00 AM
US-13 at US-113 81 79 74 None 7 mph 13 mph SW 100 - 101 9/26/2018 11:35:00 AM
US-13 at US-50 81 78 74 None 6 mph 13 mph S 97 - 97 9/26/2018 11:35:00 AM
US-15 at MD-140 75 87 71 None 4 mph 7 mph S 81 - 83 9/26/2018 11:35:00 AM
US-301 at MD-5 81 74 72 None 6 mph 15 mph S 101 - 99 9/26/2018 11:35:00 AM
US-301 at Potomac 81 82 75 None 5 mph 10 mph SE 101 - 101 9/26/2018 11:38:00 AM
US-340 at MD-180 74 94 72 None Calm 5 mph S 81 - 82 9/26/2018 11:35:00 AM
US-50 at Choptank 80 87 76 None Calm 5 mph S 99 - 99 9/26/2018 11:35:00 AM
US-50 at I-95 82 74 73 None 5 mph 9 mph SW 94 - 96 9/26/2018 11:35:00 AM
US-50 at MD-2 79 92 76 None 5 mph 10 mph S 80 - 96 9/26/2018 11:35:00 AM
US-50 at MD-331 80 80 74 None 10 mph 14 mph SW 95 - 98 9/26/2018 11:35:00 AM
US-50 at OC Drawbridge 79 92 77 None 5 mph 11 mph S 93 - 93 9/26/2018 11:35:00 AM
US-50 at Table Rock Rd 65 100 65 None 4 mph 10 mph SW 70 - 70 9/26/2018 11:35:00 AM
US-50 Kent Narrow Bridge 80 88 76 None 6 mph 13 mph S 97 - 98 9/26/2018 11:35:00 AM
WPL Pier 31 74 92 71 None Calm 10 mph NE 104 - 104 9/26/2018 11:38:00 AM
Location Air RH Dwp Precip Type Wind Speed Wind Gust Direction Pavement Temperature Date/Time